Time;durP1;ratioP1;P1;durP2;ratioP2;P2;SDS_P1;SDS_P2;PMS_P1;PMS_P2;Temp;Humidity;BMP_temperature;BMP_pressure;BME280_temperature;BME280_humidity;BME280_pressure;Samples;Min_cycle;Max_cycle;Signal;HPM_P1;HPM_P2
2021/07/18 00:01:28;;;;;;;16.23;8.30;;;24.40;89.20;;;;;;5112175;27;20035;-84
2021/07/18 00:03:53;;;;;;;15.48;7.38;;;24.50;88.50;;;;;;5111187;27;20418;-85
2021/07/18 00:06:19;;;;;;;15.65;8.18;;;24.50;88.30;;;;;;5111865;27;20061;-81
2021/07/18 00:08:44;;;;;;;10.77;7.65;;;24.50;88.10;;;;;;5129698;27;20031;-81
2021/07/18 00:11:10;;;;;;;13.52;7.22;;;24.50;87.90;;;;;;5129622;27;20103;-85
2021/07/18 00:13:36;;;;;;;16.23;8.13;;;24.50;87.80;;;;;;5112029;27;20793;-84
2021/07/18 00:16:02;;;;;;;14.05;7.45;;;24.50;88.10;;;;;;5130032;27;20391;-84
2021/07/18 00:18:27;;;;;;;13.93;6.97;;;24.40;88.60;;;;;;5111097;27;20059;-84
2021/07/18 00:20:53;;;;;;;11.13;7.63;;;24.30;89.30;;;;;;5129661;27;20023;-83
2021/07/18 00:23:19;;;;;;;12.10;7.00;;;24.20;89.80;;;;;;5129622;27;20027;-85
2021/07/18 00:25:44;;;;;;;11.75;7.25;;;24.00;90.10;;;;;;5111020;27;20027;-84
2021/07/18 00:28:10;;;;;;;16.10;7.00;;;23.90;90.40;;;;;;5129671;27;20079;-82
2021/07/18 00:30:36;;;;;;;9.52;6.65;;;23.80;90.80;;;;;;5129636;27;20485;-83
2021/07/18 00:33:04;;;;;;;9.02;7.13;;;23.70;91.10;;;;;;5129661;27;20036;-84
2021/07/18 00:35:29;;;;;;;14.63;7.47;;;23.50;91.40;;;;;;5110603;27;20392;-83
2021/07/18 00:37:55;;;;;;;12.35;7.10;;;23.40;91.60;;;;;;5111004;27;20103;-85
2021/07/18 00:40:21;;;;;;;9.65;7.68;;;23.40;91.80;;;;;;5110512;27;20229;-85
2021/07/18 00:42:47;;;;;;;16.70;7.60;;;23.30;92.10;;;;;;5128920;27;20030;-85
2021/07/18 00:45:12;;;;;;;11.38;7.50;;;23.20;92.30;;;;;;5129079;27;20030;-85
2021/07/18 00:47:40;;;;;;;12.27;7.50;;;23.20;92.50;;;;;;5110777;27;20436;-85
2021/07/18 00:50:12;;;;;;;13.52;7.57;;;23.20;92.50;;;;;;5110914;27;20049;-85
2021/07/18 00:52:38;;;;;;;12.80;7.32;;;23.30;92.50;;;;;;5110546;27;20035;-85
2021/07/18 00:55:06;;;;;;;16.25;6.75;;;23.40;92.10;;;;;;5128472;27;20084;-85
2021/07/18 00:57:33;;;;;;;10.88;7.00;;;23.50;91.90;;;;;;5128712;27;20500;-84
2021/07/18 01:00:01;;;;;;;17.25;7.43;;;23.60;91.80;;;;;;5110165;27;20030;-82
2021/07/18 01:02:27;;;;;;;9.57;6.93;;;23.60;91.60;;;;;;5128939;27;20068;-84
2021/07/18 01:04:53;;;;;;;11.35;6.55;;;23.60;91.60;;;;;;5128455;27;20030;-84
2021/07/18 01:07:19;;;;;;;12.52;7.00;;;23.60;91.90;;;;;;5110344;27;20028;-86
2021/07/18 01:09:45;;;;;;;11.60;7.30;;;23.50;92.10;;;;;;5110262;27;20442;-84
2021/07/18 01:12:10;;;;;;;8.60;7.05;;;23.40;92.40;;;;;;5128453;27;20542;-84
2021/07/18 01:14:36;;;;;;;10.57;7.68;;;23.20;92.70;;;;;;5128407;27;20030;-87
2021/07/18 01:17:02;;;;;;;14.48;8.15;;;23.10;93.00;;;;;;5128314;27;20076;-85
2021/07/18 01:19:30;;;;;;;13.23;8.23;;;23.10;93.10;;;;;;5128699;27;20031;-86
2021/07/18 01:21:59;;;;;;;11.10;7.80;;;23.00;93.30;;;;;;5109738;27;20023;-85
2021/07/18 01:24:25;;;;;;;12.18;9.32;;;22.90;93.70;;;;;;5110139;27;20023;-83
2021/07/18 01:26:51;;;;;;;11.38;8.73;;;22.80;94.00;;;;;;5128193;27;20023;-83
2021/07/18 01:29:18;;;;;;;13.23;7.97;;;22.70;94.00;;;;;;5128453;27;20054;-83
2021/07/18 01:31:44;;;;;;;16.13;9.18;;;22.70;94.20;;;;;;5110423;27;20027;-86
2021/07/18 01:34:09;;;;;;;14.63;9.43;;;22.70;94.40;;;;;;5128358;27;20400;-84
2021/07/18 01:36:35;;;;;;;17.95;8.77;;;22.60;94.60;;;;;;5109479;27;20027;-86
2021/07/18 01:39:05;;;;;;;16.20;9.60;;;22.50;94.70;;;;;;5127995;27;20062;-81
2021/07/18 01:41:31;;;;;;;12.15;8.95;;;22.50;94.80;;;;;;5109369;27;20407;-84
2021/07/18 01:43:57;;;;;;;12.00;9.63;;;22.50;94.80;;;;;;5128294;27;20027;-85
2021/07/18 01:46:22;;;;;;;15.15;9.57;;;22.50;94.80;;;;;;5127852;27;20021;-85
2021/07/18 01:48:53;;;;;;;13.48;9.60;;;22.50;94.90;;;;;;5109778;27;20561;-86
2021/07/18 01:51:23;;;;;;;14.95;9.70;;;22.40;95.10;;;;;;5109564;27;20038;-85
2021/07/18 01:53:56;;;;;;;15.00;9.63;;;22.50;95.00;;;;;;5127950;27;20545;-82
2021/07/18 01:56:23;;;;;;;11.95;9.27;;;22.40;95.00;;;;;;5127623;27;20469;-83
2021/07/18 01:58:50;;;;;;;18.05;9.50;;;22.40;94.90;;;;;;5128044;27;20177;-85
2021/07/18 02:01:17;;;;;;;11.90;9.60;;;22.40;95.00;;;;;;5127933;27;20042;-82
2021/07/18 02:03:43;;;;;;;12.18;8.18;;;22.40;94.60;;;;;;5109149;27;20604;-86
2021/07/18 02:06:09;;;;;;;13.73;7.90;;;22.40;94.10;;;;;;5127542;27;20044;-83
2021/07/18 02:08:35;;;;;;;16.77;8.20;;;22.40;93.70;;;;;;5127739;27;20031;-85
2021/07/18 02:11:00;;;;;;;14.93;8.07;;;22.50;93.70;;;;;;5127893;27;20033;-86
2021/07/18 02:13:26;;;;;;;14.45;9.15;;;22.50;94.00;;;;;;5127802;27;20107;-85
2021/07/18 02:15:52;;;;;;;12.73;8.45;;;22.40;93.80;;;;;;5109608;28;20039;-85
2021/07/18 02:18:18;;;;;;;13.27;9.07;;;22.40;93.80;;;;;;5109106;27;20038;-85
2021/07/18 02:20:44;;;;;;;14.05;8.85;;;22.30;93.90;;;;;;5127064;27;20084;-84
2021/07/18 02:23:10;;;;;;;12.13;8.55;;;22.30;94.30;;;;;;5108793;28;20031;-84
2021/07/18 02:25:35;;;;;;;13.07;9.07;;;22.20;94.60;;;;;;5108919;28;20241;-86
2021/07/18 02:28:01;;;;;;;13.80;8.98;;;22.20;94.80;;;;;;5109507;28;20027;-85
2021/07/18 02:30:28;;;;;;;17.60;8.90;;;22.10;94.80;;;;;;5109096;28;20030;-84
2021/07/18 02:32:54;;;;;;;12.77;9.10;;;22.10;94.90;;;;;;5127985;28;20444;-85
2021/07/18 02:35:21;;;;;;;12.57;9.25;;;22.10;94.90;;;;;;5108803;28;20110;-84
2021/07/18 02:37:48;;;;;;;15.60;9.50;;;22.00;95.00;;;;;;5108920;28;20031;-82
2021/07/18 02:40:16;;;;;;;14.13;8.70;;;22.00;94.90;;;;;;5127490;28;20533;-84
2021/07/18 02:42:42;;;;;;;15.68;8.57;;;22.00;94.90;;;;;;5127359;28;20032;-84
2021/07/18 02:45:09;;;;;;;15.98;8.75;;;21.90;95.00;;;;;;5108816;28;20039;-83
2021/07/18 02:47:36;;;;;;;12.00;8.55;;;21.90;95.10;;;;;;5108866;28;20027;-86
2021/07/18 02:50:07;;;;;;;14.15;9.20;;;21.90;95.20;;;;;;5127557;28;20085;-85
2021/07/18 02:52:33;;;;;;;15.70;10.25;;;21.90;95.60;;;;;;5108346;28;20023;-84
2021/07/18 02:54:58;;;;;;;18.70;11.18;;;21.90;95.30;;;;;;5108974;28;20027;-86
2021/07/18 02:57:24;;;;;;;16.45;9.50;;;21.90;95.40;;;;;;5108823;28;20096;-85
2021/07/18 02:59:51;;;;;;;12.05;8.73;;;21.80;95.30;;;;;;5108325;28;20035;-85
2021/07/18 03:02:16;;;;;;;12.45;9.18;;;21.90;95.10;;;;;;5127501;28;20023;-84
2021/07/18 03:04:42;;;;;;;18.73;8.88;;;21.90;95.00;;;;;;5127272;28;20039;-81
2021/07/18 03:07:08;;;;;;;11.68;8.68;;;21.90;95.10;;;;;;5126495;28;20837;-85
2021/07/18 03:09:33;;;;;;;15.45;9.20;;;21.90;95.00;;;;;;5126991;28;20032;-86
2021/07/18 03:11:59;;;;;;;15.77;8.18;;;21.90;95.10;;;;;;5109027;28;20035;-85
2021/07/18 03:14:24;;;;;;;18.67;7.82;;;21.90;95.00;;;;;;5127221;28;20664;-85
2021/07/18 03:16:50;;;;;;;14.77;9.57;;;22.00;93.90;;;;;;5108985;28;20076;-86
2021/07/18 03:19:16;;;;;;;16.90;8.85;;;22.00;94.80;;;;;;5127075;28;20078;-86
2021/07/18 03:21:42;;;;;;;15.98;10.30;;;22.00;95.30;;;;;;5126798;28;20415;-81
2021/07/18 03:24:08;;;;;;;12.38;10.00;;;21.90;95.70;;;;;;5108665;28;20495;-85
2021/07/18 03:26:34;;;;;;;21.73;11.38;;;21.80;96.10;;;;;;5108975;28;20128;-85
2021/07/18 03:29:00;;;;;;;21.27;11.40;;;21.70;96.40;;;;;;5108990;28;20047;-84
2021/07/18 03:31:26;;;;;;;17.20;11.20;;;21.60;96.70;;;;;;5109024;28;20083;-86
2021/07/18 03:33:52;;;;;;;16.77;11.38;;;21.50;97.00;;;;;;5128981;27;20023;-84
2021/07/18 03:36:18;;;;;;;28.67;11.82;;;21.40;97.30;;;;;;5111891;27;20038;-85
2021/07/18 03:38:43;;;;;;;15.55;11.80;;;21.30;97.50;;;;;;5130462;27;20027;-83
2021/07/18 03:41:09;;;;;;;18.00;12.77;;;21.30;97.80;;;;;;5130301;27;20038;-84
2021/07/18 03:43:35;;;;;;;17.63;12.90;;;21.20;98.00;;;;;;5112189;27;20669;-83
2021/07/18 03:46:01;;;;;;;20.75;12.63;;;21.20;98.20;;;;;;5111848;27;20048;-86
2021/07/18 03:48:26;;;;;;;23.33;14.05;;;21.10;98.50;;;;;;5112044;27;20022;-86
2021/07/18 03:50:52;;;;;;;17.77;13.00;;;21.10;98.70;;;;;;5129963;27;20498;-86
2021/07/18 03:53:18;;;;;;;18.88;14.20;;;21.00;98.90;;;;;;5111739;27;20588;-86
2021/07/18 03:55:44;;;;;;;26.70;13.38;;;20.90;99.10;;;;;;5130359;27;20073;-84
2021/07/18 03:58:09;;;;;;;16.40;12.63;;;21.00;99.20;;;;;;5111318;27;20597;-85
2021/07/18 04:00:35;;;;;;;17.42;12.05;;;21.10;99.20;;;;;;5130251;27;20031;-86
2021/07/18 04:03:01;;;;;;;21.20;12.48;;;21.10;99.10;;;;;;5112043;27;20510;-86
2021/07/18 04:05:27;;;;;;;21.90;12.13;;;21.10;99.00;;;;;;5130022;27;20027;-85
2021/07/18 04:07:52;;;;;;;24.90;12.60;;;21.20;98.90;;;;;;5110991;27;20023;-81
2021/07/18 04:10:18;;;;;;;20.85;11.50;;;21.40;98.70;;;;;;5111745;27;20042;-86
2021/07/18 04:12:44;;;;;;;22.27;11.90;;;21.60;98.40;;;;;;5130120;27;20023;-85
2021/07/18 04:15:10;;;;;;;19.90;11.98;;;21.80;97.90;;;;;;5129677;27;20035;-80
2021/07/18 04:17:36;;;;;;;21.35;11.00;;;21.90;97.50;;;;;;5129609;27;20518;-87
2021/07/18 04:20:03;;;;;;;20.20;12.32;;;22.10;97.20;;;;;;5129528;27;20035;-84
2021/07/18 04:22:29;;;;;;;15.20;10.52;;;22.30;96.90;;;;;;5129264;27;20023;-84
2021/07/18 04:24:55;;;;;;;22.05;11.82;;;22.50;96.80;;;;;;5129980;27;20045;-82
2021/07/18 04:27:20;;;;;;;15.52;11.00;;;22.60;96.50;;;;;;5111041;27;20380;-82
2021/07/18 04:29:46;;;;;;;16.65;9.95;;;22.70;96.20;;;;;;5111756;27;20327;-86
2021/07/18 04:32:12;;;;;;;16.05;10.68;;;22.90;95.90;;;;;;5129145;27;20026;-85
2021/07/18 04:34:42;;;;;;;16.65;11.07;;;23.20;95.40;;;;;;5111563;27;20107;-82
2021/07/18 04:37:08;;;;;;;21.73;11.13;;;23.40;94.70;;;;;;5129129;27;20023;-84
2021/07/18 04:39:34;;;;;;;28.42;10.13;;;23.60;94.20;;;;;;5129359;27;20414;-82
2021/07/18 04:42:00;;;;;;;19.13;9.43;;;23.70;94.00;;;;;;5110540;27;20019;-85
2021/07/18 04:44:26;;;;;;;17.92;9.80;;;23.80;93.70;;;;;;5110296;27;20092;-80
2021/07/18 04:46:54;;;;;;;17.83;11.10;;;23.90;93.60;;;;;;5110668;27;20027;-84
2021/07/18 04:49:21;;;;;;;19.40;10.63;;;24.00;93.40;;;;;;5128915;27;20054;-80
2021/07/18 04:51:46;;;;;;;21.05;10.18;;;24.10;93.10;;;;;;5128484;27;20072;-83
2021/07/18 04:54:12;;;;;;;19.58;9.85;;;24.30;92.40;;;;;;5128719;27;20649;-82
2021/07/18 04:56:39;;;;;;;15.02;9.48;;;24.40;92.30;;;;;;5128728;27;20051;-81
2021/07/18 04:59:05;;;;;;;10.60;9.23;;;24.60;92.00;;;;;;5110190;27;20482;-82
2021/07/18 05:01:30;;;;;;;20.40;9.88;;;24.80;91.30;;;;;;5128545;27;20026;-80
2021/07/18 05:03:56;;;;;;;12.30;8.55;;;25.00;90.90;;;;;;5128302;27;20031;-80
2021/07/18 05:06:21;;;;;;;13.73;9.30;;;25.10;90.80;;;;;;5109750;27;20023;-80
2021/07/18 05:08:47;;;;;;;10.45;8.70;;;25.30;90.50;;;;;;5128757;27;20418;-78
2021/07/18 05:11:13;;;;;;;17.48;9.45;;;25.60;90.10;;;;;;5109976;27;20019;-78
2021/07/18 05:13:38;;;;;;;15.43;8.95;;;25.80;88.40;;;;;;5110306;27;20038;-80
2021/07/18 05:16:04;;;;;;;19.67;9.10;;;25.90;87.80;;;;;;5127898;27;20019;-79
2021/07/18 05:18:29;;;;;;;10.75;8.93;;;26.10;87.20;;;;;;5109777;27;20489;-82
2021/07/18 05:20:55;;;;;;;19.98;8.85;;;26.20;87.20;;;;;;5127788;27;20023;-80
2021/07/18 05:23:21;;;;;;;14.82;9.05;;;26.30;85.80;;;;;;5109467;27;20023;-81
2021/07/18 05:25:46;;;;;;;18.42;9.50;;;26.30;84.80;;;;;;5109603;27;20031;-78
2021/07/18 05:28:12;;;;;;;19.63;9.65;;;26.40;84.70;;;;;;5109632;27;20030;-81
2021/07/18 05:30:38;;;;;;;15.52;9.10;;;26.50;84.20;;;;;;5109537;27;20027;-81
2021/07/18 05:33:03;;;;;;;21.20;8.38;;;26.60;83.60;;;;;;5128008;27;20479;-80
2021/07/18 05:35:29;;;;;;;19.65;9.20;;;26.70;82.20;;;;;;5127829;27;20535;-81
2021/07/18 05:37:55;;;;;;;11.07;7.85;;;26.70;81.80;;;;;;5127547;27;20043;-80
2021/07/18 05:40:20;;;;;;;14.60;8.80;;;26.70;81.30;;;;;;5109426;27;20411;-80
2021/07/18 05:42:46;;;;;;;12.40;7.68;;;26.90;81.50;;;;;;5128096;27;20438;-80
2021/07/18 05:45:13;;;;;;;14.65;7.82;;;26.90;80.50;;;;;;5127774;27;20059;-81
2021/07/18 05:47:39;;;;;;;19.38;9.07;;;27.10;79.90;;;;;;5127363;27;20034;-81
2021/07/18 05:50:08;;;;;;;11.13;7.88;;;27.20;79.10;;;;;;5127723;27;20023;-81
2021/07/18 05:52:33;;;;;;;13.07;7.88;;;27.30;78.90;;;;;;5127650;27;20027;-79
2021/07/18 05:54:59;;;;;;;19.58;8.15;;;27.50;79.10;;;;;;5109360;27;20051;-80
2021/07/18 05:57:25;;;;;;;13.00;7.97;;;28.00;77.10;;;;;;5108362;27;20511;-79
2021/07/18 05:59:50;;;;;;;13.57;8.35;;;28.80;74.40;;;;;;5109169;27;20107;-79
2021/07/18 06:02:16;;;;;;;10.88;7.65;;;29.50;70.30;;;;;;5127292;27;20034;-79
2021/07/18 06:04:42;;;;;;;10.85;8.00;;;30.40;66.80;;;;;;5127500;27;20042;-80
2021/07/18 06:07:09;;;;;;;13.25;6.78;;;31.30;63.70;;;;;;5126748;27;20038;-80
2021/07/18 06:09:35;;;;;;;17.15;7.38;;;32.10;60.40;;;;;;5127064;27;20415;-81
2021/07/18 06:12:01;;;;;;;14.88;7.43;;;32.80;57.70;;;;;;5108960;27;20034;-80
2021/07/18 06:14:26;;;;;;;16.27;6.90;;;33.40;55.30;;;;;;5092198;27;20069;-80
2021/07/18 06:16:52;;;;;;;12.15;6.97;;;34.20;52.80;;;;;;5127473;27;20526;-80
2021/07/18 06:19:17;;;;;;;18.90;7.53;;;35.00;50.80;;;;;;5108145;28;20035;-80
2021/07/18 06:21:43;;;;;;;16.63;7.15;;;35.50;48.90;;;;;;5127094;28;20027;-80
2021/07/18 06:24:09;;;;;;;19.13;6.68;;;36.00;47.70;;;;;;5127430;28;20031;-80
2021/07/18 06:26:35;;;;;;;10.77;6.97;;;36.30;46.00;;;;;;5126809;28;20015;-80
2021/07/18 06:29:00;;;;;;;14.93;6.68;;;36.80;45.30;;;;;;5108277;28;20050;-80
2021/07/18 06:31:26;;;;;;;12.27;6.50;;;37.40;44.30;;;;;;5108731;28;20023;-80
2021/07/18 06:33:52;;;;;;;16.90;7.97;;;38.00;43.40;;;;;;5108397;28;20030;-80
2021/07/18 06:36:19;;;;;;;9.38;6.53;;;38.20;42.20;;;;;;5127340;28;20031;-81
2021/07/18 06:38:44;;;;;;;8.98;6.35;;;38.40;42.30;;;;;;5108370;28;20058;-81
2021/07/18 06:41:10;;;;;;;13.52;6.18;;;38.60;40.70;;;;;;5127534;28;20492;-79
2021/07/18 06:43:36;;;;;;;9.80;6.53;;;38.70;40.80;;;;;;5127445;28;20464;-81
2021/07/18 06:46:02;;;;;;;15.88;6.07;;;38.80;40.80;;;;;;5108038;28;20019;-80
2021/07/18 06:48:27;;;;;;;17.73;6.78;;;38.90;40.60;;;;;;5108022;28;20031;-80
2021/07/18 06:50:53;;;;;;;12.63;6.20;;;39.10;40.20;;;;;;5127012;28;20031;-81
2021/07/18 06:53:19;;;;;;;12.15;6.55;;;39.30;39.30;;;;;;5108738;28;20096;-80
2021/07/18 06:55:44;;;;;;;16.85;7.03;;;39.40;39.50;;;;;;5108056;28;20126;-81
2021/07/18 06:58:10;;;;;;;13.25;6.55;;;39.10;39.60;;;;;;5108062;28;20042;-79
2021/07/18 07:00:36;;;;;;;9.85;6.78;;;39.00;40.40;;;;;;5108284;28;20582;-78
2021/07/18 07:03:02;;;;;;;11.57;6.55;;;39.20;39.70;;;;;;5126677;28;20031;-80
2021/07/18 07:05:28;;;;;;;12.82;6.88;;;39.30;39.30;;;;;;5126552;28;20107;-80
2021/07/18 07:07:53;;;;;;;17.30;6.53;;;39.50;39.40;;;;;;5128309;27;20110;-79
2021/07/18 07:10:20;;;;;;;14.80;6.40;;;40.00;38.90;;;;;;5130798;27;20031;-80
2021/07/18 07:12:46;;;;;;;11.18;6.60;;;39.90;38.40;;;;;;5111904;27;20027;-81
2021/07/18 07:15:13;;;;;;;13.13;6.40;;;39.90;38.50;;;;;;5111932;27;20030;-84
2021/07/18 07:17:39;;;;;;;27.15;6.88;;;39.90;38.00;;;;;;5112348;27;20502;-84
2021/07/18 07:20:07;;;;;;;14.52;6.65;;;39.80;38.70;;;;;;5112203;27;20087;-83
2021/07/18 07:22:35;;;;;;;10.32;6.43;;;39.80;38.70;;;;;;5111925;27;20091;-83
2021/07/18 07:25:05;;;;;;;11.27;6.28;;;40.00;37.00;;;;;;5130798;27;20031;-83
2021/07/18 07:27:31;;;;;;;14.10;7.03;;;39.40;38.00;;;;;;5111972;27;20029;-84
2021/07/18 07:29:57;;;;;;;12.38;6.28;;;38.70;38.40;;;;;;5112309;27;20118;-84
2021/07/18 07:32:22;;;;;;;11.63;6.10;;;38.30;40.00;;;;;;5131165;27;20406;-84
2021/07/18 07:34:48;;;;;;;11.20;7.22;;;38.10;40.90;;;;;;5130195;27;20526;-84
2021/07/18 07:37:14;;;;;;;14.02;6.70;;;38.30;41.50;;;;;;5130987;27;20023;-84
2021/07/18 07:39:40;;;;;;;9.85;6.68;;;38.50;40.60;;;;;;5112060;27;20047;-85
2021/07/18 07:42:07;;;;;;;15.82;6.43;;;38.80;41.20;;;;;;5112001;27;20019;-84
2021/07/18 07:44:33;;;;;;;11.02;5.95;;;39.10;40.50;;;;;;5112123;27;20483;-85
2021/07/18 07:46:59;;;;;;;13.93;6.28;;;39.20;40.50;;;;;;5130522;27;20128;-84
2021/07/18 07:49:25;;;;;;;12.25;6.88;;;39.40;39.90;;;;;;5129970;27;20034;-84
2021/07/18 07:51:50;;;;;;;17.23;7.25;;;39.70;39.70;;;;;;5130620;27;20027;-85
2021/07/18 07:54:16;;;;;;;13.20;6.30;;;40.00;38.60;;;;;;5129848;27;20147;-84
2021/07/18 07:56:42;;;;;;;15.57;6.05;;;39.70;39.10;;;;;;5129762;27;20051;-84
2021/07/18 07:59:07;;;;;;;10.52;6.32;;;39.70;39.60;;;;;;5130060;27;20039;-85
2021/07/18 08:01:33;;;;;;;11.48;5.85;;;39.60;38.90;;;;;;5130344;27;20057;-85
2021/07/18 08:03:59;;;;;;;9.88;6.50;;;39.80;39.10;;;;;;5111211;27;20031;-85
2021/07/18 08:06:26;;;;;;;10.05;5.55;;;39.50;40.00;;;;;;5130021;27;20533;-85
2021/07/18 08:08:51;;;;;;;11.82;6.57;;;39.50;39.30;;;;;;5111686;27;20043;-84
2021/07/18 08:11:17;;;;;;;10.10;6.15;;;39.50;38.50;;;;;;5130055;27;20080;-85
2021/07/18 08:13:43;;;;;;;16.50;6.50;;;39.80;38.70;;;;;;5111170;27;20472;-83
2021/07/18 08:16:09;;;;;;;13.98;6.35;;;40.00;38.80;;;;;;5129718;27;20027;-84
2021/07/18 08:18:35;;;;;;;11.88;6.40;;;40.20;39.40;;;;;;5092773;28;20503;-84
2021/07/18 08:21:01;;;;;;;11.82;7.00;;;40.50;38.60;;;;;;5129412;27;20075;-83
2021/07/18 08:23:29;;;;;;;11.35;6.20;;;40.20;39.20;;;;;;5129389;27;20027;-82
2021/07/18 08:25:55;;;;;;;23.08;7.47;;;40.20;39.50;;;;;;5129286;27;20023;-83
2021/07/18 08:28:22;;;;;;;21.92;6.80;;;40.50;38.40;;;;;;5129506;27;20079;-84
2021/07/18 08:30:48;;;;;;;12.60;6.32;;;40.50;37.80;;;;;;5129376;27;20031;-84
2021/07/18 08:33:13;;;;;;;18.75;6.93;;;40.50;38.60;;;;;;5110366;27;20019;-82
2021/07/18 08:35:39;;;;;;;11.40;5.97;;;40.60;37.80;;;;;;5110566;27;20080;-83
2021/07/18 08:38:05;;;;;;;10.75;6.18;;;40.50;36.90;;;;;;5110064;27;20349;-82
2021/07/18 08:40:34;;;;;;;12.98;5.85;;;40.50;37.70;;;;;;5110488;27;20020;-82
2021/07/18 08:43:00;;;;;;;11.30;6.60;;;40.70;38.10;;;;;;5129070;27;20031;-84
2021/07/18 08:45:26;;;;;;;20.73;6.55;;;40.60;38.20;;;;;;5110486;27;20023;-83
2021/07/18 08:47:51;;;;;;;11.80;6.18;;;40.70;37.80;;;;;;5128712;27;20399;-83
2021/07/18 08:50:17;;;;;;;10.50;6.55;;;40.70;37.90;;;;;;5128206;27;20165;-82
2021/07/18 08:52:54;;;;;;;17.95;6.00;;;40.70;38.50;;;;;;5110433;27;20027;-83
2021/07/18 08:55:21;;;;;;;9.25;6.40;;;40.70;37.90;;;;;;5128858;27;20038;-83
2021/07/18 08:57:47;;;;;;;11.50;6.55;;;40.70;38.00;;;;;;5128467;27;20058;-84
2021/07/18 09:00:14;;;;;;;11.35;6.22;;;40.80;38.10;;;;;;5110376;27;20073;-83
2021/07/18 09:02:41;;;;;;;12.20;6.30;;;40.50;37.90;;;;;;5128162;27;20031;-83
2021/07/18 09:05:08;;;;;;;12.63;6.55;;;40.50;38.30;;;;;;5110128;27;20034;-83
2021/07/18 09:07:54;;;;;;;11.32;6.13;;;40.20;37.90;;;;;;5109685;27;20045;-82
2021/07/18 09:10:30;;;;;;;13.57;6.68;;;39.50;40.10;;;;;;5128243;27;20510;-84
2021/07/18 09:13:09;;;;;;;13.40;6.55;;;39.60;39.10;;;;;;5110148;27;20456;-84
2021/07/18 09:15:41;;;;;;;12.40;6.22;;;40.00;38.70;;;;;;5110297;27;20027;-83
2021/07/18 09:18:12;;;;;;;13.05;6.47;;;40.20;38.60;;;;;;5109930;27;20087;-84
2021/07/18 09:20:46;;;;;;;14.85;6.60;;;40.50;37.70;;;;;;5128120;27;20031;-84
2021/07/18 09:23:28;;;;;;;13.97;6.33;;;40.30;38.30;;;;;;5109897;27;20098;-84
2021/07/18 09:26:22;;;;;;;15.65;6.72;;;40.40;38.80;;;;;;5109868;27;20264;-82
2021/07/18 09:28:49;;;;;;;17.73;6.72;;;40.80;37.60;;;;;;5128450;27;20148;-82
2021/07/18 09:31:28;;;;;;;11.45;6.75;;;40.70;37.40;;;;;;5128303;27;20023;-80
2021/07/18 09:34:13;;;;;;;10.30;6.20;;;40.70;37.80;;;;;;5129258;27;20034;-85
2021/07/18 09:36:40;;;;;;;16.27;7.22;;;40.50;38.10;;;;;;5128810;27;20491;-84
2021/07/18 09:39:11;;;;;;;9.30;6.07;;;39.90;38.90;;;;;;5109703;27;20119;-81
2021/07/18 09:41:38;;;;;;;10.52;6.03;;;39.80;39.30;;;;;;5127548;27;20035;-83
2021/07/18 09:44:04;;;;;;;10.75;7.20;;;39.60;39.30;;;;;;5128715;27;20098;-85
2021/07/18 09:46:32;;;;;;;8.43;6.40;;;39.10;39.30;;;;;;5110083;27;20090;-85
2021/07/18 09:49:00;;;;;;;12.65;6.82;;;39.00;40.30;;;;;;5110324;27;20118;-85
2021/07/18 09:51:26;;;;;;;17.27;6.72;;;39.10;40.80;;;;;;5109932;27;20444;-87
2021/07/18 09:54:29;;;;;;;10.25;7.05;;;39.30;40.40;;;;;;5111113;27;20114;-86
2021/07/18 09:56:55;;;;;;;9.55;6.75;;;40.00;40.20;;;;;;5008913;28;20044;-84
2021/07/18 09:59:20;;;;;;;15.05;6.50;;;40.20;39.80;;;;;;5090177;27;20138;-86
2021/07/18 10:01:54;;;;;;;18.50;6.57;;;40.70;39.10;;;;;;5127775;27;20564;-84
2021/07/18 10:04:20;;;;;;;10.93;7.57;;;41.00;38.80;;;;;;5109592;27;20027;-87
2021/07/18 10:06:45;;;;;;;12.13;6.25;;;40.80;38.60;;;;;;5128822;27;20027;-82
2021/07/18 10:09:13;;;;;;;19.05;6.88;;;40.60;38.40;;;;;;5108880;27;20031;-85
2021/07/18 10:11:39;;;;;;;11.43;6.68;;;40.50;38.30;;;;;;5110857;27;20180;-86
2021/07/18 10:14:07;;;;;;;9.88;6.30;;;40.10;38.90;;;;;;5109815;28;20549;-86
2021/07/18 10:16:33;;;;;;;15.48;6.55;;;39.70;39.50;;;;;;5109279;28;20786;-83
2021/07/18 10:18:58;;;;;;;12.65;6.88;;;39.40;40.70;;;;;;5109000;28;20700;-84
2021/07/18 10:21:26;;;;;;;12.32;6.70;;;39.10;40.00;;;;;;5109181;28;20019;-82
2021/07/18 10:23:53;;;;;;;16.10;6.78;;;39.00;40.60;;;;;;5109518;28;20027;-82
2021/07/18 10:26:25;;;;;;;11.68;6.28;;;38.70;41.70;;;;;;5128444;28;20110;-84
2021/07/18 10:28:51;;;;;;;11.88;5.93;;;38.60;41.90;;;;;;5110868;28;20035;-82
2021/07/18 10:31:30;;;;;;;12.60;6.97;;;38.60;42.20;;;;;;5109548;28;20023;-83
2021/07/18 10:33:56;;;;;;;11.48;7.22;;;38.50;41.70;;;;;;5108948;28;20030;-81
2021/07/18 10:36:24;;;;;;;12.90;6.57;;;37.90;42.50;;;;;;5109278;28;20031;-81
2021/07/18 10:38:51;;;;;;;14.45;7.07;;;37.40;43.00;;;;;;5127352;28;20047;-83
2021/07/18 10:41:36;;;;;;;10.68;6.50;;;36.80;44.10;;;;;;5110459;27;20054;-86
2021/07/18 10:44:11;;;;;;;11.27;6.57;;;36.50;45.10;;;;;;5114324;27;20031;-86
2021/07/18 10:46:43;;;;;;;12.18;6.32;;;36.30;45.30;;;;;;5131553;27;20027;-84
2021/07/18 10:49:12;;;;;;;12.35;6.05;;;36.00;45.60;;;;;;5113518;27;20039;-84
2021/07/18 10:51:40;;;;;;;9.07;6.03;;;35.50;45.10;;;;;;5132438;27;20023;-83
2021/07/18 10:54:13;;;;;;;13.68;5.82;;;35.00;45.60;;;;;;5113272;27;20058;-84
2021/07/18 10:56:44;;;;;;;13.73;6.68;;;34.60;46.40;;;;;;5112573;27;20047;-84
2021/07/18 10:59:36;;;;;;;11.30;5.70;;;34.20;47.00;;;;;;5113831;27;20047;-86
2021/07/18 11:02:08;;;;;;;17.95;6.13;;;33.60;48.20;;;;;;5113978;27;20038;-81
2021/07/18 11:04:42;;;;;;;19.02;6.47;;;33.30;50.40;;;;;;5131442;27;20051;-83
2021/07/18 11:07:22;;;;;;;17.88;7.22;;;32.90;55.80;;;;;;5132693;27;20027;-83
2021/07/18 11:09:59;;;;;;;29.17;10.52;;;32.40;57.80;;;;;;5112705;27;20104;-81
2021/07/18 11:12:34;;;;;;;25.15;8.82;;;31.70;61.70;;;;;;5112456;27;20076;-78
2021/07/18 11:15:15;;;;;;;29.08;9.07;;;30.90;66.00;;;;;;5112359;27;20027;-80
2021/07/18 11:18:05;;;;;;;14.40;7.75;;;30.40;68.90;;;;;;5111743;27;20150;-84
2021/07/18 11:20:52;;;;;;;14.88;6.80;;;29.60;71.10;;;;;;5112624;27;20454;-83
2021/07/18 11:23:26;;;;;;;;;;;29.00;74.70;;;;;;5131769;27;20019;-83
2021/07/18 11:26:05;;;;;;;14.63;6.20;;;28.60;75.50;;;;;;5112301;27;19907;-81
2021/07/18 11:28:32;;;;;;;17.52;6.90;;;28.50;75.20;;;;;;5131474;27;20088;-89
2021/07/18 11:31:09;;;;;;;11.68;6.95;;;28.40;76.70;;;;;;5114924;27;20061;-80
2021/07/18 11:33:36;;;;;;;13.05;7.32;;;28.60;82.10;;;;;;5130904;27;20030;-84
2021/07/18 11:36:02;;;;;;;17.50;7.85;;;28.80;84.70;;;;;;5111962;27;20068;-84
2021/07/18 11:38:31;;;;;;;12.88;9.10;;;29.00;84.90;;;;;;5112430;27;20027;-84
2021/07/18 11:40:57;;;;;;;16.85;8.40;;;29.30;88.00;;;;;;5112817;27;20728;-84
2021/07/18 11:43:23;;;;;;;12.40;7.95;;;29.60;88.70;;;;;;5112765;27;20117;-85
2021/07/18 11:45:52;;;;;;;18.25;7.80;;;30.00;88.00;;;;;;5112690;27;20055;-84
2021/07/18 11:48:18;;;;;;;10.18;7.30;;;30.30;86.60;;;;;;5110522;27;20031;-84
2021/07/18 11:50:43;;;;;;;13.77;6.50;;;30.60;81.70;;;;;;5106428;27;20057;-84
2021/07/18 11:53:09;;;;;;;11.48;6.45;;;30.80;80.70;;;;;;5106414;27;20031;-82
2021/07/18 11:55:34;;;;;;;11.65;7.70;;;30.90;83.70;;;;;;5119777;27;20039;-82
2021/07/18 11:58:00;;;;;;;23.58;7.80;;;30.90;84.20;;;;;;5111144;27;20488;-82
2021/07/18 12:00:26;;;;;;;18.05;8.13;;;31.00;83.40;;;;;;5108178;27;20050;-81
2021/07/18 12:02:52;;;;;;;12.38;7.75;;;31.10;80.90;;;;;;5110306;27;20034;-81
2021/07/18 12:05:20;;;;;;;17.27;7.80;;;31.00;83.10;;;;;;5109762;27;20040;-82
2021/07/18 12:07:45;;;;;;;17.45;7.20;;;31.30;83.50;;;;;;5111034;27;20043;-82
2021/07/18 12:10:20;;;;;;;11.57;6.95;;;31.60;79.80;;;;;;5115807;27;20047;-81
2021/07/18 12:12:49;;;;;;;12.10;7.40;;;31.90;80.10;;;;;;5112262;27;20074;-82
2021/07/18 12:15:15;;;;;;;16.63;7.80;;;32.30;78.80;;;;;;5110124;27;20037;-81
2021/07/18 12:17:41;;;;;;;12.45;7.60;;;32.40;76.50;;;;;;5127137;27;20039;-81
2021/07/18 12:20:08;;;;;;;9.68;6.20;;;32.60;75.00;;;;;;5111497;27;20028;-82
2021/07/18 12:22:34;;;;;;;12.65;6.10;;;32.90;74.00;;;;;;5117342;27;20628;-82
2021/07/18 12:25:00;;;;;;;8.00;4.93;;;33.10;70.20;;;;;;5112764;27;20075;-82
2021/07/18 12:27:27;;;;;;;7.30;4.75;;;33.30;67.10;;;;;;5110610;27;20043;-81
2021/07/18 12:30:05;;;;;;;9.07;5.25;;;33.50;61.10;;;;;;5112431;27;20050;-83
2021/07/18 12:32:33;;;;;;;8.63;4.88;;;33.70;60.20;;;;;;5110212;27;20484;-83
2021/07/18 12:35:00;;;;;;;9.00;5.18;;;33.80;57.10;;;;;;5123744;27;20068;-83
2021/07/18 12:37:35;;;;;;;10.23;6.10;;;34.00;56.50;;;;;;5111034;27;20023;-83